createdAt,value
2019-04-06T00:00:31.045Z,86.10
2019-04-06T00:03:01.227Z,85.90
2019-04-06T00:05:31.518Z,85.90
2019-04-06T00:08:01.585Z,85.90
2019-04-06T00:10:32.862Z,86.00
2019-04-06T00:13:02.931Z,86.70
2019-04-06T00:15:33.089Z,86.50
2019-04-06T00:18:03.350Z,86.50
2019-04-06T00:20:33.612Z,86.70
2019-04-06T00:23:03.838Z,86.60
2019-04-06T00:25:43.747Z,86.70
2019-04-06T00:28:07.203Z,87.00
2019-04-06T00:30:56.609Z,87.90
2019-04-06T00:33:27.282Z,87.30
2019-04-06T00:35:57.443Z,88.70
2019-04-06T00:38:27.651Z,88.50
2019-04-06T00:40:57.830Z,88.80
2019-04-06T00:43:27.990Z,89.30
2019-04-06T00:45:58.137Z,89.50
2019-04-06T00:48:28.306Z,89.70
2019-04-06T00:50:58.549Z,90.60
2019-04-06T00:53:28.723Z,90.40
2019-04-06T00:55:58.904Z,90.40
2019-04-06T00:58:29.052Z,90.60
2019-04-06T01:00:59.222Z,90.70
2019-04-06T01:03:29.277Z,90.90
2019-04-06T01:05:59.418Z,90.70
2019-04-06T01:08:29.621Z,91.10
2019-04-06T01:10:59.843Z,91.00
2019-04-06T01:13:30.015Z,91.20
2019-04-06T01:16:01.423Z,91.30
2019-04-06T01:18:31.507Z,91.30
2019-04-06T01:21:02.764Z,91.30
2019-04-06T01:23:32.870Z,92.00
2019-04-06T01:26:07.361Z,91.60
2019-04-06T01:28:34.722Z,91.80
2019-04-06T01:31:04.833Z,91.90
2019-04-06T01:33:34.956Z,92.00
2019-04-06T01:36:05.077Z,92.10
2019-04-06T01:38:35.236Z,92.10
2019-04-06T01:41:05.542Z,92.30
2019-04-06T01:43:35.649Z,92.30
2019-04-06T01:46:05.888Z,92.60
2019-04-06T01:48:36.127Z,92.70
2019-04-06T01:51:06.321Z,92.80
2019-04-06T01:53:36.397Z,92.80
2019-04-06T01:56:17.882Z,93.00
2019-04-06T01:58:39.470Z,92.80
2019-04-06T02:01:21.491Z,93.00
2019-04-06T02:03:51.881Z,93.10
2019-04-06T02:06:22.110Z,93.20
2019-04-06T02:08:52.225Z,93.50
2019-04-06T02:11:22.363Z,93.40
2019-04-06T02:13:52.654Z,93.70
2019-04-06T02:16:22.785Z,93.60
2019-04-06T02:18:53.020Z,93.70
2019-04-06T02:21:23.583Z,93.80
2019-04-06T02:23:53.825Z,93.90
2019-04-06T02:26:30.421Z,93.60
2019-04-06T02:28:55.937Z,93.80
2019-04-06T02:31:45.054Z,94.00
2019-04-06T02:34:52.685Z,93.90
2019-04-06T02:37:41.175Z,93.90
2019-04-06T02:40:21.418Z,93.90
2019-04-06T02:42:59.201Z,94.20
2019-04-06T02:45:29.353Z,94.30
2019-04-06T02:47:59.479Z,94.30
2019-04-06T02:50:29.561Z,94.30
2019-04-06T02:52:59.738Z,94.40
2019-04-06T02:55:30.418Z,94.40
2019-04-06T02:58:00.773Z,94.40
2019-04-06T03:00:30.936Z,94.50
2019-04-06T03:03:01.136Z,94.80
2019-04-06T03:05:31.852Z,94.60
2019-04-06T03:08:02.022Z,94.60
2019-04-06T03:10:32.335Z,94.60
2019-04-06T03:13:02.569Z,94.70
2019-04-06T03:15:34.466Z,94.60
2019-04-06T03:18:04.766Z,94.80
2019-04-06T03:20:35.218Z,95.10
2019-04-06T03:23:05.441Z,95.00
2019-04-06T03:25:35.647Z,95.00
2019-04-06T03:28:05.781Z,95.00
2019-04-06T03:30:35.912Z,95.30
2019-04-06T03:33:06.221Z,95.30
2019-04-06T03:35:36.421Z,95.40
2019-04-06T03:38:06.638Z,95.40
2019-04-06T03:40:36.785Z,95.40
2019-04-06T03:43:06.867Z,95.50
2019-04-06T03:45:37.216Z,95.80
2019-04-06T03:48:07.576Z,95.90
2019-04-06T03:50:37.808Z,96.00
2019-04-06T03:53:08.080Z,96.00
2019-04-06T03:55:38.238Z,96.20
2019-04-06T03:58:08.636Z,96.20
2019-04-06T04:00:38.778Z,96.00
2019-04-06T04:03:09.215Z,96.10
2019-04-06T04:05:39.465Z,96.20
2019-04-06T04:08:09.575Z,96.20
2019-04-06T04:10:39.957Z,96.40
2019-04-06T04:13:10.164Z,96.50
2019-04-06T04:15:40.360Z,96.40
2019-04-06T04:18:11.751Z,96.50
2019-04-06T04:20:43.068Z,96.60
2019-04-06T04:23:13.214Z,96.60
2019-04-06T04:25:43.285Z,96.60
2019-04-06T04:28:13.516Z,96.80
2019-04-06T04:30:43.775Z,96.80
2019-04-06T04:33:14.107Z,96.80
2019-04-06T04:35:44.362Z,96.50
2019-04-06T04:38:14.565Z,96.50
2019-04-06T04:40:44.702Z,96.20
2019-04-06T04:43:14.852Z,96.20
2019-04-06T04:45:45.019Z,96.00
2019-04-06T04:48:15.270Z,96.10
2019-04-06T04:50:45.662Z,96.30
2019-04-06T04:53:15.833Z,96.20
2019-04-06T04:55:45.980Z,95.80
2019-04-06T04:58:16.121Z,95.90
2019-04-06T05:00:46.393Z,95.90
2019-04-06T05:03:16.882Z,95.90
2019-04-06T05:05:47.177Z,95.90
2019-04-06T05:08:17.410Z,96.20
2019-04-06T05:10:47.538Z,95.10
2019-04-06T05:13:17.755Z,94.40
2019-04-06T05:16:10.334Z,94.30
2019-04-06T05:18:41.376Z,94.00
2019-04-06T05:21:12.125Z,93.30
2019-04-06T05:23:43.395Z,93.80
2019-04-06T05:26:13.593Z,93.30
2019-04-06T05:28:43.646Z,93.10
2019-04-06T05:31:13.689Z,92.80
2019-04-06T05:33:43.792Z,93.00
2019-04-06T05:36:14.100Z,92.20
2019-04-06T05:38:44.227Z,92.00
2019-04-06T05:41:14.470Z,91.60
2019-04-06T05:43:44.618Z,91.20
2019-04-06T05:46:14.822Z,90.70
2019-04-06T05:48:45.173Z,90.80
2019-04-06T05:51:15.417Z,90.60
2019-04-06T05:53:45.534Z,90.70
2019-04-06T05:56:15.819Z,90.60
2019-04-06T05:58:45.936Z,89.40
2019-04-06T06:01:16.311Z,88.40
2019-04-06T06:03:46.665Z,87.90
2019-04-06T06:06:16.814Z,87.80
2019-04-06T06:08:46.992Z,86.50
2019-04-06T06:11:17.213Z,87.90
2019-04-06T06:13:47.458Z,86.50
2019-04-06T06:16:17.542Z,86.20
2019-04-06T06:18:47.718Z,86.30
2019-04-06T06:21:17.857Z,86.00
2019-04-06T06:23:48.060Z,83.80
2019-04-06T06:26:18.135Z,84.70
2019-04-06T06:28:48.353Z,83.20
2019-04-06T06:31:18.585Z,82.90
2019-04-06T06:33:48.872Z,83.30
2019-04-06T06:36:18.998Z,82.50
2019-04-06T06:38:49.228Z,81.10
2019-04-06T06:41:19.492Z,80.70
2019-04-06T06:43:49.621Z,80.50
2019-04-06T06:46:19.714Z,78.70
2019-04-06T06:48:49.937Z,78.30
2019-04-06T06:51:20.034Z,79.90
2019-04-06T06:53:50.126Z,77.90
2019-04-06T06:56:21.294Z,77.30
2019-04-06T06:58:51.611Z,76.80
2019-04-06T07:01:21.810Z,77.60
2019-04-06T07:03:51.891Z,75.40
2019-04-06T07:06:22.091Z,75.20
2019-04-06T07:08:52.425Z,74.40
2019-04-06T07:11:22.626Z,74.30
2019-04-06T07:13:52.970Z,73.70
2019-04-06T07:16:23.098Z,73.30
2019-04-06T07:18:53.325Z,72.50
2019-04-06T07:21:23.546Z,70.40
2019-04-06T07:23:53.746Z,70.60
2019-04-06T07:26:23.953Z,70.50
2019-04-06T07:28:54.109Z,69.30
2019-04-06T07:31:24.382Z,68.80
2019-04-06T07:33:54.593Z,68.60
2019-04-06T07:36:24.777Z,68.60
2019-04-06T07:38:55.012Z,67.30
2019-04-06T07:41:25.250Z,66.70
2019-04-06T07:43:55.462Z,66.50
2019-04-06T07:46:25.671Z,65.80
2019-04-06T07:48:55.763Z,66.70
2019-04-06T07:51:25.897Z,66.70
2019-04-06T07:53:55.975Z,66.40
2019-04-06T07:56:26.321Z,66.70
2019-04-06T07:58:56.433Z,64.90
2019-04-06T08:01:26.615Z,65.60
2019-04-06T08:03:56.936Z,64.30
2019-04-06T08:06:27.064Z,63.60
2019-04-06T08:08:57.289Z,63.50
2019-04-06T08:11:27.614Z,63.60
2019-04-06T08:13:57.795Z,63.80
2019-04-06T08:16:28.160Z,63.40
2019-04-06T08:18:58.682Z,64.10
2019-04-06T08:21:29.208Z,63.10
2019-04-06T08:23:59.475Z,62.20
2019-04-06T08:26:29.704Z,60.90
2019-04-06T08:29:02.241Z,60.40
2019-04-06T08:31:31.853Z,62.20
2019-04-06T08:34:02.007Z,60.00
2019-04-06T08:36:32.380Z,60.00
2019-04-06T08:39:02.485Z,59.60
2019-04-06T08:41:34.370Z,59.20
2019-04-06T08:44:04.949Z,59.40
2019-04-06T08:46:35.119Z,58.70
2019-04-06T08:49:05.244Z,57.30
2019-04-06T08:51:35.520Z,57.90
2019-04-06T08:54:05.717Z,56.30
2019-04-06T08:56:35.803Z,54.60
2019-04-06T08:59:11.243Z,55.00
2019-04-06T09:01:37.817Z,54.00
2019-04-06T09:04:08.055Z,53.60
2019-04-06T09:06:38.116Z,53.50
2019-04-06T09:09:08.391Z,54.00
2019-04-06T09:11:38.606Z,54.30
2019-04-06T09:14:09.133Z,53.30
2019-04-06T09:16:39.464Z,51.80
2019-04-06T09:19:09.952Z,51.00
2019-04-06T09:21:40.349Z,49.80
2019-04-06T09:24:10.571Z,51.20
2019-04-06T09:26:40.733Z,51.40
2019-04-06T09:29:21.889Z,50.90
2019-04-06T09:31:42.811Z,51.90
2019-04-06T09:34:12.993Z,50.70
2019-04-06T09:36:43.137Z,51.40
2019-04-06T09:39:13.235Z,50.10
2019-04-06T09:41:43.559Z,49.50
2019-04-06T09:44:22.851Z,49.10
2019-04-06T09:47:01.948Z,49.60
2019-04-06T09:49:42.376Z,48.00
2019-04-06T09:52:40.608Z,48.50
2019-04-06T09:55:22.875Z,47.90
2019-04-06T09:58:18.766Z,48.30
2019-04-06T10:01:00.466Z,47.90
2019-04-06T10:03:52.257Z,47.30
2019-04-06T10:06:34.747Z,46.50
2019-04-06T10:09:33.257Z,46.80
2019-04-06T10:12:29.161Z,47.30
2019-04-06T10:15:18.422Z,45.50
2019-04-06T10:18:09.252Z,44.50
2019-04-06T10:21:01.167Z,44.70
2019-04-06T10:23:50.545Z,46.80
2019-04-06T10:26:45.879Z,45.00
2019-04-06T10:29:34.053Z,45.90
2019-04-06T10:32:23.239Z,45.50
2019-04-06T10:35:05.039Z,43.60
2019-04-06T10:37:46.116Z,43.60
2019-04-06T10:40:34.318Z,42.70
2019-04-06T10:43:41.673Z,42.60
2019-04-06T10:46:33.773Z,45.10
2019-04-06T10:49:25.913Z,42.40
2019-04-06T10:52:07.006Z,44.00
2019-04-06T10:54:56.151Z,44.50
2019-04-06T10:57:47.953Z,44.00
2019-04-06T11:00:29.012Z,42.70
2019-04-06T11:03:07.142Z,43.20
2019-04-06T11:06:04.994Z,42.50
2019-04-06T11:08:48.229Z,42.00
2019-04-06T11:11:32.571Z,42.40
2019-04-06T11:14:17.825Z,40.60
2019-04-06T11:17:05.605Z,42.10
2019-04-06T11:19:57.810Z,41.60
2019-04-06T11:22:49.915Z,42.20
2019-04-06T11:25:37.515Z,41.90
2019-04-06T11:28:20.421Z,42.10
2019-04-06T11:31:14.627Z,42.10
2019-04-06T11:34:03.854Z,42.40
2019-04-06T11:36:59.109Z,42.50
2019-04-06T11:39:43.789Z,42.40
2019-04-06T11:42:19.722Z,41.60
2019-04-06T11:45:13.639Z,42.70
2019-04-06T11:48:01.612Z,41.70
2019-04-06T11:50:50.717Z,42.80
2019-04-06T11:53:28.165Z,43.30
2019-04-06T11:56:05.758Z,43.20
2019-04-06T11:58:47.124Z,43.40
2019-04-06T12:01:23.797Z,45.10
2019-04-06T12:04:10.242Z,44.30
2019-04-06T12:06:54.952Z,43.90
2019-04-06T12:09:36.390Z,42.10
2019-04-06T12:12:14.952Z,43.00
2019-04-06T12:15:16.472Z,43.00
2019-04-06T12:18:05.366Z,43.80
2019-04-06T12:20:57.521Z,44.50
2019-04-06T12:23:52.737Z,43.00
2019-04-06T12:26:47.807Z,45.00
2019-04-06T12:29:48.577Z,43.60
2019-04-06T12:32:41.417Z,42.20
2019-04-06T12:35:28.334Z,44.00
2019-04-06T12:38:05.161Z,43.00
2019-04-06T12:40:47.167Z,42.70
2019-04-06T12:43:45.449Z,42.70
2019-04-06T12:46:37.668Z,43.00
2019-04-06T12:49:16.730Z,43.70
2019-04-06T12:51:54.036Z,44.50
2019-04-06T12:55:01.949Z,44.60
2019-04-06T12:57:45.086Z,44.80
2019-04-06T13:00:22.143Z,44.20
2019-04-06T13:03:10.585Z,43.50
2019-04-06T13:05:49.516Z,43.50
2019-04-06T13:08:38.718Z,44.50
2019-04-06T13:11:31.120Z,45.00
2019-04-06T13:14:12.334Z,44.30
2019-04-06T13:17:04.314Z,42.60
2019-04-06T13:19:56.177Z,43.20
2019-04-06T13:22:51.350Z,44.40
2019-04-06T13:25:39.058Z,43.80
2019-04-06T13:28:28.593Z,44.30
2019-04-06T13:31:36.838Z,44.00
2019-04-06T13:34:41.425Z,44.40
2019-04-06T13:37:33.622Z,43.70
2019-04-06T13:40:18.303Z,42.80
2019-04-06T13:43:16.821Z,42.90
2019-04-06T13:46:09.354Z,42.80
2019-04-06T13:48:57.151Z,42.00
2019-04-06T13:51:45.059Z,42.30
2019-04-06T13:54:35.453Z,42.80
2019-04-06T13:57:17.738Z,42.20
2019-04-06T14:00:05.714Z,43.00
2019-04-06T14:02:58.401Z,42.70
2019-04-06T14:05:56.521Z,42.00
2019-04-06T14:08:42.614Z,42.10
2019-04-06T14:11:30.737Z,42.10
2019-04-06T14:14:16.853Z,41.90
2019-04-06T14:16:56.655Z,42.10
2019-04-06T14:19:44.935Z,41.70
2019-04-06T14:22:41.765Z,42.20
2019-04-06T14:25:25.373Z,43.30
2019-04-06T14:28:33.173Z,42.30
2019-04-06T14:31:34.437Z,42.00
2019-04-06T14:34:32.871Z,42.50
2019-04-06T14:37:21.221Z,42.70
2019-04-06T14:40:09.338Z,41.60
2019-04-06T14:42:53.958Z,40.80
2019-04-06T14:45:41.159Z,41.40
2019-04-06T14:48:19.036Z,41.50
2019-04-06T14:51:14.406Z,42.10
2019-04-06T14:53:57.045Z,42.30
2019-04-06T14:56:36.720Z,42.30
2019-04-06T14:59:26.782Z,42.30
2019-04-06T15:02:14.257Z,41.80
2019-04-06T15:05:03.285Z,42.70
2019-04-06T15:07:49.341Z,42.80
2019-04-06T15:10:29.703Z,43.40
2019-04-06T15:13:07.297Z,43.00
2019-04-06T15:15:59.750Z,43.20
2019-04-06T15:18:40.288Z,42.80
2019-04-06T15:21:27.714Z,43.00
2019-04-06T15:24:17.583Z,44.10
2019-04-06T15:27:05.877Z,43.90
2019-04-06T15:29:54.184Z,44.50
2019-04-06T15:32:30.570Z,45.30
2019-04-06T15:35:29.014Z,46.00
2019-04-06T15:38:36.333Z,45.30
2019-04-06T15:41:18.673Z,46.10
2019-04-06T15:44:20.152Z,46.20
2019-04-06T15:47:01.098Z,46.50
2019-04-06T15:49:56.512Z,45.90
2019-04-06T15:53:10.037Z,46.80
2019-04-06T15:55:59.293Z,46.80
2019-04-06T15:58:38.119Z,46.50
2019-04-06T16:01:30.216Z,47.00
2019-04-06T16:04:19.410Z,47.40
2019-04-06T16:06:57.846Z,48.00
2019-04-06T16:09:59.165Z,48.40
2019-04-06T16:12:38.034Z,47.90
2019-04-06T16:15:15.863Z,48.20
2019-04-06T16:18:04.264Z,49.20
2019-04-06T16:20:53.506Z,50.00
2019-04-06T16:23:38.427Z,48.40
2019-04-06T16:26:16.955Z,49.30
2019-04-06T16:29:04.475Z,49.10
2019-04-06T16:32:10.484Z,50.80
2019-04-06T16:34:53.456Z,48.70
2019-04-06T16:37:30.922Z,49.00
2019-04-06T16:40:18.783Z,48.50
2019-04-06T16:43:11.002Z,48.80
2019-04-06T16:45:59.091Z,49.60
2019-04-06T16:49:03.075Z,50.40
2019-04-06T16:51:45.490Z,49.80
2019-04-06T16:54:37.323Z,50.10
2019-04-06T16:57:35.468Z,50.70
2019-04-06T17:00:25.872Z,50.00
2019-04-06T17:03:20.996Z,50.50
2019-04-06T17:06:08.853Z,50.00
2019-04-06T17:08:58.785Z,49.60
2019-04-06T17:11:48.033Z,50.00
2019-04-06T17:14:35.994Z,51.30
2019-04-06T17:17:31.408Z,51.30
2019-04-06T17:20:19.730Z,51.30
2019-04-06T17:23:07.702Z,51.80
2019-04-06T17:26:02.836Z,51.50
2019-04-06T17:28:42.325Z,52.30
2019-04-06T17:31:30.323Z,51.80
2019-04-06T17:34:22.231Z,53.10
2019-04-06T17:37:07.432Z,54.00
2019-04-06T17:39:55.963Z,55.20
2019-04-06T17:42:36.306Z,55.60
2019-04-06T17:45:38.427Z,55.90
2019-04-06T17:48:26.505Z,55.70
2019-04-06T17:51:18.215Z,55.60
2019-04-06T17:54:25.844Z,55.70
2019-04-06T17:57:30.111Z,57.00
2019-04-06T18:00:12.434Z,57.40
2019-04-06T18:02:58.652Z,57.60
2019-04-06T18:05:50.962Z,57.20
2019-04-06T18:08:38.871Z,58.00
2019-04-06T18:11:30.852Z,58.60
2019-04-06T18:14:01.263Z,58.70
2019-04-06T18:16:36.384Z,58.50
2019-04-06T18:19:06.857Z,58.00
2019-04-06T18:21:37.129Z,59.10
2019-04-06T18:24:07.416Z,59.20
2019-04-06T18:26:37.652Z,58.10
2019-04-06T18:29:07.925Z,57.90
2019-04-06T18:32:00.319Z,58.90
2019-04-06T18:34:30.895Z,58.50
2019-04-06T18:37:35.742Z,59.60
2019-04-06T18:40:28.055Z,59.50
2019-04-06T18:42:58.689Z,59.30
2019-04-06T18:45:31.301Z,60.10
2019-04-06T18:48:01.470Z,60.20
2019-04-06T18:50:35.939Z,60.10
2019-04-06T18:53:03.494Z,60.00
2019-04-06T18:55:33.591Z,60.20
2019-04-06T18:58:11.265Z,60.40
2019-04-06T19:00:35.791Z,61.10
2019-04-06T19:03:14.100Z,62.60
2019-04-06T19:05:39.542Z,62.80
2019-04-06T19:08:12.048Z,62.40
2019-04-06T19:10:43.110Z,62.50
2019-04-06T19:13:14.631Z,62.90
2019-04-06T19:15:45.472Z,63.20
2019-04-06T19:18:15.822Z,63.20
2019-04-06T19:20:46.169Z,63.90
2019-04-06T19:23:16.350Z,64.10
2019-04-06T19:25:46.515Z,64.60
2019-04-06T19:28:16.746Z,65.10
2019-04-06T19:30:47.039Z,65.90
2019-04-06T19:33:23.262Z,66.30
2019-04-06T19:35:49.432Z,66.00
2019-04-06T19:38:19.946Z,65.80
2019-04-06T19:40:50.389Z,66.30
2019-04-06T19:43:21.763Z,66.50
2019-04-06T19:45:52.170Z,65.60
2019-04-06T19:48:23.492Z,66.00
2019-04-06T19:50:54.256Z,66.60
2019-04-06T19:53:24.518Z,66.50
2019-04-06T19:55:54.922Z,66.70
2019-04-06T19:58:25.101Z,67.20
2019-04-06T20:00:55.272Z,68.60
2019-04-06T20:03:34.112Z,68.40
2019-04-06T20:05:57.272Z,67.70
2019-04-06T20:08:28.215Z,69.10
2019-04-06T20:10:58.716Z,69.60
2019-04-06T20:13:29.519Z,69.90
2019-04-06T20:15:59.854Z,69.70
2019-04-06T20:18:29.959Z,69.50
2019-04-06T20:21:01.798Z,69.50
2019-04-06T20:23:32.289Z,70.20
2019-04-06T20:26:02.479Z,71.20
2019-04-06T20:28:33.660Z,71.80
2019-04-06T20:31:04.016Z,72.10
2019-04-06T20:33:45.979Z,71.80
2019-04-06T20:36:06.194Z,72.00
2019-04-06T20:38:36.797Z,71.90
2019-04-06T20:41:07.164Z,72.60
2019-04-06T20:43:37.450Z,72.60
2019-04-06T20:46:07.673Z,73.20
2019-04-06T20:48:38.493Z,73.40
2019-04-06T20:51:08.929Z,74.10
2019-04-06T20:53:39.653Z,74.30
2019-04-06T20:56:09.974Z,75.10
2019-04-06T20:58:40.224Z,75.70
2019-04-06T21:01:11.480Z,76.50
2019-04-06T21:03:41.681Z,77.70
2019-04-06T21:06:12.213Z,78.00
2019-04-06T21:08:42.496Z,78.20
2019-04-06T21:11:12.868Z,79.30
2019-04-06T21:13:43.528Z,80.70
2019-04-06T21:16:15.179Z,81.30
2019-04-06T21:18:45.506Z,82.70
2019-04-06T21:21:16.576Z,84.90
2019-04-06T21:23:46.898Z,85.70
2019-04-06T21:26:17.224Z,85.80
2019-04-06T21:28:47.706Z,87.20
2019-04-06T21:31:18.037Z,87.20
2019-04-06T21:33:48.311Z,87.10
2019-04-06T21:36:19.059Z,88.10
2019-04-06T21:38:49.483Z,87.60
2019-04-06T21:41:19.803Z,88.90
2019-04-06T21:43:50.134Z,88.30
2019-04-06T21:46:20.370Z,88.60
2019-04-06T21:48:50.705Z,87.80
2019-04-06T21:51:20.811Z,87.60
2019-04-06T21:53:51.692Z,87.50
2019-04-06T21:56:22.498Z,87.70
2019-04-06T21:58:52.857Z,87.90
2019-04-06T22:01:24.447Z,87.90
2019-04-06T22:03:56.310Z,88.80
2019-04-06T22:06:26.449Z,88.60
2019-04-06T22:08:56.798Z,89.50
2019-04-06T22:11:27.680Z,89.70
2019-04-06T22:13:57.994Z,90.40
2019-04-06T22:16:28.841Z,90.20
2019-04-06T22:18:59.118Z,90.20
2019-04-06T22:21:30.625Z,90.50
2019-04-06T22:24:01.247Z,90.90
2019-04-06T22:26:31.522Z,91.00
2019-04-06T22:29:01.820Z,91.10
2019-04-06T22:31:33.292Z,91.40
2019-04-06T22:34:03.545Z,91.60
2019-04-06T22:36:33.666Z,91.30
2019-04-06T22:39:06.017Z,91.50
2019-04-06T22:41:36.533Z,91.60
2019-04-06T22:44:07.293Z,92.00
2019-04-06T22:46:38.042Z,92.40
2019-04-06T22:49:08.379Z,92.30
2019-04-06T22:51:40.057Z,92.50
2019-04-06T22:54:10.854Z,92.50
2019-04-06T22:56:41.062Z,92.80
2019-04-06T22:59:11.297Z,93.10
2019-04-06T23:01:43.714Z,93.10
2019-04-06T23:04:48.488Z,93.20
2019-04-06T23:07:16.691Z,93.40
2019-04-06T23:09:47.016Z,94.00
2019-04-06T23:12:17.712Z,94.80
2019-04-06T23:14:47.918Z,94.70
2019-04-06T23:17:18.153Z,94.70
2019-04-06T23:19:48.498Z,94.50
2019-04-06T23:22:18.622Z,94.80
2019-04-06T23:24:48.819Z,94.70
2019-04-06T23:27:19.260Z,94.70
2019-04-06T23:29:49.631Z,94.90
2019-04-06T23:32:21.279Z,95.00
2019-04-06T23:34:59.509Z,95.20
2019-04-06T23:37:23.486Z,95.00
2019-04-06T23:39:53.770Z,95.10
2019-04-06T23:42:24.500Z,95.20
2019-04-06T23:44:55.745Z,95.30
2019-04-06T23:47:25.970Z,95.20
2019-04-06T23:49:57.451Z,95.50
2019-04-06T23:52:28.044Z,95.40
2019-04-06T23:54:58.844Z,95.60
2019-04-06T23:57:29.249Z,95.70
2019-04-06T23:59:59.562Z,95.70
